Time;durP1;ratioP1;P1;durP2;ratioP2;P2;SDS_P1;SDS_P2;PMS_P1;PMS_P2;Temp;Humidity;BMP_temperature;BMP_pressure;BME280_temperature;BME280_humidity;BME280_pressure;Samples;Min_cycle;Max_cycle;Signal;HPM_P1;HPM_P2
2022/08/24 00:00:52;;;;;;;;;;;19.10;59.30;;;;;;4166236;28;20044;-83
2022/08/24 00:02:53;;;;;;;7.95;1.70;;;19.00;59.40;;;;;;4163965;28;19913;-83
2022/08/24 00:04:54;;;;;;;4.28;0.65;;;19.00;59.10;;;;;;4157028;28;20028;-82
2022/08/24 00:06:55;;;;;;;2.97;0.77;;;19.00;59.40;;;;;;4161686;28;20113;-83
2022/08/24 00:08:57;;;;;;;4.30;1.70;;;19.00;59.60;;;;;;4164009;28;20037;-84
2022/08/24 00:10:58;;;;;;;3.30;0.98;;;18.90;59.70;;;;;;4162601;28;20034;-83
2022/08/24 00:12:59;;;;;;;5.03;0.95;;;19.00;59.90;;;;;;4159984;28;20411;-82
2022/08/24 00:15:00;;;;;;;7.35;1.50;;;18.90;60.00;;;;;;4161090;28;20097;-83
2022/08/24 00:17:01;;;;;;;7.13;1.17;;;18.90;60.10;;;;;;4160886;28;20040;-83
2022/08/24 00:19:04;;;;;;;4.75;1.10;;;18.90;60.30;;;;;;4161534;28;20842;-84
2022/08/24 00:21:06;;;;;;;6.03;1.33;;;18.90;60.50;;;;;;4160251;28;20117;-82
2022/08/24 00:23:07;;;;;;;6.57;1.35;;;18.80;60.50;;;;;;4163127;28;20040;-84
2022/08/24 00:25:10;;;;;;;3.83;0.90;;;18.80;60.60;;;;;;4162482;28;20041;-83
2022/08/24 00:27:11;;;;;;;;;;;18.80;60.80;;;;;;4162491;28;20571;-83
2022/08/24 00:29:14;;;;;;;5.85;1.30;;;18.80;61.20;;;;;;4157792;28;19955;-83
2022/08/24 00:31:15;;;;;;;5.15;1.05;;;18.80;60.60;;;;;;4161724;28;20537;-83
2022/08/24 00:33:16;;;;;;;2.78;0.93;;;18.80;60.90;;;;;;4161780;28;20030;-84
2022/08/24 00:35:18;;;;;;;4.75;1.20;;;18.70;61.00;;;;;;4162591;28;20169;-82
2022/08/24 00:37:19;;;;;;;7.53;1.40;;;18.70;61.20;;;;;;4164060;28;20089;-83
2022/08/24 00:39:20;;;;;;;2.78;1.05;;;18.70;61.40;;;;;;4160948;28;20079;-83
2022/08/24 00:41:21;;;;;;;5.55;1.10;;;18.70;61.60;;;;;;4163577;28;20079;-83
2022/08/24 00:43:25;;;;;;;4.22;1.58;;;18.70;61.80;;;;;;4158741;28;20100;-83
2022/08/24 00:45:26;;;;;;;;;;;18.60;61.80;;;;;;4145463;28;20415;-83
2022/08/24 00:47:38;;;;;;;5.45;1.08;;;18.60;62.00;;;;;;4159278;28;19921;-83
2022/08/24 00:49:44;;;;;;;6.65;1.27;;;18.60;61.60;;;;;;4176556;28;21074;-83
2022/08/24 00:52:09;;;;;;;6.13;1.30;;;18.60;61.90;;;;;;4163878;28;20033;-83
2022/08/24 00:54:14;;;;;;;2.80;1.15;;;18.50;62.20;;;;;;4163834;28;20434;-83
2022/08/24 00:56:25;;;;;;;4.75;1.02;;;18.50;62.40;;;;;;4169342;28;20513;-81
2022/08/24 00:58:35;;;;;;;6.20;1.55;;;18.50;62.90;;;;;;4180284;28;20033;-81
2022/08/24 01:00:40;;;;;;;2.65;0.80;;;18.40;63.10;;;;;;4159947;28;20052;-83
2022/08/24 01:02:43;;;;;;;5.97;1.25;;;18.40;63.30;;;;;;4161373;28;20511;-81
2022/08/24 01:04:55;;;;;;;;;;;18.40;63.30;;;;;;4160716;28;20508;-82
2022/08/24 01:06:57;;;;;;;5.03;1.15;;;18.40;63.70;;;;;;4159341;28;20212;-82
2022/08/24 01:08:58;;;;;;;5.20;1.38;;;18.40;63.10;;;;;;4155615;28;20407;-81
2022/08/24 01:11:07;;;;;;;3.20;1.20;;;18.30;63.30;;;;;;4159856;28;20093;-82
2022/08/24 01:13:10;;;;;;;9.27;1.42;;;18.30;63.90;;;;;;4161145;28;20026;-82
2022/08/24 01:15:19;;;;;;;3.03;1.40;;;18.30;63.90;;;;;;4160286;28;20552;-83
2022/08/24 01:19:52;;;;;;;2.95;1.30;;;18.20;64.10;;;;;;4123935;28;20125;-81
2022/08/24 01:22:04;;;;;;;7.22;1.63;;;18.10;64.30;;;;;;4159082;28;20049;-82
2022/08/24 01:24:10;;;;;;;5.47;1.25;;;18.10;64.60;;;;;;4160882;28;20464;-80
2022/08/24 01:26:17;;;;;;;6.05;1.38;;;18.10;64.90;;;;;;4159344;28;20438;-80
2022/08/24 01:28:20;;;;;;;5.07;1.40;;;18.00;65.00;;;;;;4160755;28;20438;-81
2022/08/24 01:30:21;;;;;;;4.47;1.63;;;18.00;65.20;;;;;;4159500;28;20395;-83
2022/08/24 01:32:23;;;;;;;9.10;1.65;;;17.90;65.20;;;;;;4159072;28;20054;-80
2022/08/24 01:34:24;;;;;;;10.70;1.63;;;17.90;65.50;;;;;;4159317;28;20608;-82
2022/08/24 01:36:44;;;;;;;3.63;1.38;;;17.90;65.90;;;;;;4158502;28;20033;-83
2022/08/24 01:38:46;;;;;;;5.85;1.77;;;17.90;65.80;;;;;;4161355;28;20121;-82
2022/08/24 01:40:52;;;;;;;10.68;1.38;;;17.90;66.00;;;;;;4162270;28;20781;-83
2022/08/24 01:42:52;;;;;;;4.97;1.40;;;17.80;66.10;;;;;;4161896;28;20052;-83
2022/08/24 01:44:53;;;;;;;3.83;1.15;;;17.80;66.40;;;;;;4161793;28;20033;-83
2022/08/24 01:46:55;;;;;;;8.15;1.30;;;17.80;67.00;;;;;;4172363;28;20025;-83
2022/08/24 01:48:57;;;;;;;8.25;1.90;;;17.70;66.70;;;;;;4157966;28;20108;-83
2022/08/24 01:50:58;;;;;;;6.72;1.38;;;17.70;66.80;;;;;;4160467;28;20037;-84
2022/08/24 01:53:01;;;;;;;8.48;1.40;;;17.70;67.00;;;;;;4158637;28;20029;-82
2022/08/24 01:55:05;;;;;;;5.63;1.17;;;17.70;67.10;;;;;;4157842;28;20427;-83
2022/08/24 01:57:07;;;;;;;3.72;1.30;;;17.60;67.10;;;;;;4160389;28;20061;-84
2022/08/24 01:59:08;;;;;;;9.80;1.40;;;17.60;67.20;;;;;;4148546;28;20042;-83
2022/08/24 02:01:09;;;;;;;7.15;1.70;;;17.60;67.30;;;;;;4164640;28;20527;-83
2022/08/24 02:03:10;;;;;;;5.25;1.23;;;17.60;67.40;;;;;;4158717;28;20030;-83
2022/08/24 02:05:13;;;;;;;5.75;1.60;;;17.60;67.50;;;;;;4164520;28;20112;-83
2022/08/24 02:07:14;;;;;;;6.40;1.05;;;17.50;67.60;;;;;;4143597;28;20031;-83
2022/08/24 02:09:15;;;;;;;7.38;1.50;;;17.50;67.90;;;;;;4147280;28;20065;-83
2022/08/24 02:11:16;;;;;;;6.35;1.17;;;17.50;68.00;;;;;;4160297;28;20045;-83
2022/08/24 02:13:17;;;;;;;5.60;1.27;;;17.40;68.10;;;;;;4154670;28;20083;-84
2022/08/24 02:15:17;;;;;;;5.32;1.20;;;17.40;68.20;;;;;;4157783;28;20034;-83
2022/08/24 02:17:18;;;;;;;5.15;1.70;;;17.40;68.30;;;;;;4157037;28;20496;-83
2022/08/24 02:19:19;;;;;;;6.20;1.50;;;17.40;68.30;;;;;;4157328;28;20160;-83
2022/08/24 02:21:20;;;;;;;5.55;1.40;;;17.40;68.30;;;;;;4155086;28;20076;-83
2022/08/24 02:23:21;;;;;;;7.53;1.55;;;17.40;68.30;;;;;;4158072;28;20025;-83
2022/08/24 02:25:23;;;;;;;4.00;1.35;;;17.40;68.30;;;;;;4159601;28;20063;-84
2022/08/24 02:27:24;;;;;;;7.22;1.50;;;17.30;68.30;;;;;;4158927;28;20135;-83
2022/08/24 02:29:25;;;;;;;3.72;1.15;;;17.30;68.30;;;;;;4161124;28;20108;-84
2022/08/24 02:31:26;;;;;;;5.35;1.40;;;17.30;68.40;;;;;;4175397;28;20022;-85
2022/08/24 02:33:26;;;;;;;3.75;1.38;;;17.30;68.30;;;;;;4179931;28;20022;-85
2022/08/24 02:35:28;;;;;;;9.13;1.75;;;17.30;68.30;;;;;;4180259;28;20037;-84
2022/08/24 02:37:29;;;;;;;6.28;1.45;;;17.30;68.30;;;;;;4179418;28;20115;-84
2022/08/24 02:39:30;;;;;;;7.32;1.60;;;17.20;68.20;;;;;;4171900;28;20037;-83
2022/08/24 02:41:31;;;;;;;4.65;1.30;;;17.20;68.30;;;;;;4166910;28;20025;-83
2022/08/24 02:43:32;;;;;;;6.70;1.45;;;17.10;68.20;;;;;;4166188;28;20106;-83
2022/08/24 02:45:38;;;;;;;3.67;1.20;;;17.10;68.30;;;;;;4161275;28;20032;-84
2022/08/24 02:47:39;;;;;;;5.57;1.40;;;17.10;68.50;;;;;;4164760;28;20045;-85
2022/08/24 02:49:40;;;;;;;3.78;1.23;;;17.10;68.50;;;;;;4164593;28;20056;-83
2022/08/24 02:51:45;;;;;;;6.38;1.25;;;17.10;68.60;;;;;;4160517;28;20025;-83
2022/08/24 02:53:46;;;;;;;6.30;1.40;;;17.00;68.70;;;;;;4159440;28;20026;-83
2022/08/24 02:55:47;;;;;;;5.60;1.58;;;17.00;68.90;;;;;;4160900;28;20124;-85
2022/08/24 02:57:49;;;;;;;3.42;1.38;;;17.00;69.00;;;;;;4162590;28;20033;-83
2022/08/24 02:59:53;;;;;;;5.40;1.42;;;17.00;69.10;;;;;;4152337;28;20173;-83
2022/08/24 03:01:54;;;;;;;3.95;1.27;;;17.00;69.10;;;;;;4139787;28;20030;-83
2022/08/24 03:03:56;;;;;;;4.03;1.30;;;16.90;69.10;;;;;;4161150;28;20083;-83
2022/08/24 03:05:57;;;;;;;6.00;1.55;;;16.90;69.10;;;;;;4158422;28;20105;-83
2022/08/24 03:07:58;;;;;;;5.05;1.20;;;16.90;69.10;;;;;;4162723;28;20033;-83
2022/08/24 03:09:59;;;;;;;3.90;1.30;;;16.90;69.20;;;;;;4158483;28;20026;-83
2022/08/24 03:11:59;;;;;;;5.78;1.58;;;16.80;69.10;;;;;;4160925;28;20064;-83
2022/08/24 03:14:01;;;;;;;2.78;1.30;;;16.90;69.20;;;;;;4150823;28;20622;-84
2022/08/24 03:16:01;;;;;;;5.07;1.42;;;16.90;69.10;;;;;;4158809;28;20160;-82
2022/08/24 03:18:02;;;;;;;3.20;1.60;;;16.80;69.10;;;;;;4160346;28;20133;-83
2022/08/24 03:20:06;;;;;;;7.00;1.65;;;16.80;69.20;;;;;;4162703;28;20117;-83
2022/08/24 03:22:07;;;;;;;3.45;1.42;;;16.80;69.30;;;;;;4160421;28;20024;-83
2022/08/24 03:24:08;;;;;;;5.07;1.90;;;16.80;69.40;;;;;;4159218;28;20089;-83
2022/08/24 03:26:09;;;;;;;4.22;1.52;;;16.80;69.50;;;;;;4158427;28;20499;-83
2022/08/24 03:28:10;;;;;;;7.18;1.55;;;16.70;69.60;;;;;;4160675;28;20087;-84
2022/08/24 03:30:14;;;;;;;7.13;1.38;;;16.70;69.60;;;;;;4156725;28;20044;-84
2022/08/24 03:32:14;;;;;;;3.60;1.23;;;16.70;69.60;;;;;;4151957;28;20025;-83
2022/08/24 03:34:15;;;;;;;5.05;1.60;;;16.70;69.70;;;;;;4154198;28;20079;-84
2022/08/24 03:36:17;;;;;;;4.40;1.33;;;16.70;69.80;;;;;;4151888;28;20034;-82
2022/08/24 03:38:20;;;;;;;3.50;1.90;;;16.70;69.80;;;;;;4154406;28;20106;-84
2022/08/24 03:40:22;;;;;;;5.07;1.70;;;16.60;69.90;;;;;;4153741;28;20503;-83
2022/08/24 03:42:23;;;;;;;8.18;1.80;;;16.60;69.70;;;;;;4155095;28;20032;-83
2022/08/24 03:44:24;;;;;;;6.78;1.70;;;16.60;69.70;;;;;;4155066;28;20545;-84
2022/08/24 03:46:27;;;;;;;4.40;1.60;;;16.60;69.60;;;;;;4157381;28;20041;-83
2022/08/24 03:48:29;;;;;;;11.02;1.63;;;16.60;69.70;;;;;;4157314;28;20029;-83
2022/08/24 03:50:30;;;;;;;5.28;1.70;;;16.60;69.70;;;;;;4153907;28;21709;-83
2022/08/24 03:52:31;;;;;;;4.93;1.50;;;16.60;69.90;;;;;;4172887;28;20033;-83
2022/08/24 03:54:31;;;;;;;5.07;1.90;;;16.50;70.00;;;;;;4154194;28;20029;-83
2022/08/24 03:56:32;;;;;;;6.90;1.77;;;16.50;70.10;;;;;;4149798;28;20889;-82
2022/08/24 03:58:35;;;;;;;5.35;1.65;;;16.50;70.10;;;;;;4139039;28;20404;-83
2022/08/24 04:00:41;;;;;;;4.47;1.45;;;16.50;70.20;;;;;;4153640;28;20038;-82
2022/08/24 04:02:43;;;;;;;7.63;1.35;;;16.50;70.10;;;;;;4158417;28;20024;-84
2022/08/24 04:04:43;;;;;;;3.88;1.35;;;16.50;70.10;;;;;;4157313;28;20087;-84
2022/08/24 04:06:45;;;;;;;5.28;1.55;;;16.50;70.30;;;;;;4156272;28;20029;-81
2022/08/24 04:08:47;;;;;;;5.13;1.45;;;16.50;70.40;;;;;;4136346;28;20026;-82
2022/08/24 04:10:47;;;;;;;2.85;1.58;;;16.50;70.50;;;;;;4156684;28;20028;-84
2022/08/24 04:12:48;;;;;;;3.38;1.60;;;16.50;70.60;;;;;;4141199;28;20030;-83
2022/08/24 04:14:54;;;;;;;4.15;1.17;;;16.50;70.70;;;;;;4153696;28;20424;-82
2022/08/24 04:16:55;;;;;;;3.88;1.63;;;16.50;70.80;;;;;;4158639;28;20434;-82
2022/08/24 04:18:57;;;;;;;3.35;1.45;;;16.50;70.80;;;;;;4152976;28;20033;-84
2022/08/24 04:20:57;;;;;;;4.82;1.15;;;16.50;70.80;;;;;;4159419;28;20056;-82
2022/08/24 04:22:58;;;;;;;5.03;1.42;;;16.50;70.80;;;;;;4162444;28;20511;-84
2022/08/24 04:24:59;;;;;;;3.67;1.50;;;16.50;70.90;;;;;;4160667;28;20023;-82
2022/08/24 04:27:00;;;;;;;5.75;1.73;;;16.50;70.90;;;;;;4142761;28;20025;-82
2022/08/24 04:29:03;;;;;;;7.68;1.35;;;16.50;71.00;;;;;;4161627;28;20037;-83
2022/08/24 04:31:05;;;;;;;3.72;1.42;;;16.50;71.00;;;;;;4159259;28;20021;-82
2022/08/24 04:33:07;;;;;;;7.10;1.40;;;16.50;71.10;;;;;;4156441;28;20041;-82
2022/08/24 04:35:13;;;;;;;5.80;1.35;;;16.50;71.20;;;;;;4148517;28;20045;-84
2022/08/24 04:37:16;;;;;;;4.82;1.60;;;16.50;71.10;;;;;;4162236;28;20073;-83
2022/08/24 04:39:20;;;;;;;5.13;1.58;;;16.50;71.10;;;;;;4149569;28;20083;-85
2022/08/24 04:41:21;;;;;;;7.10;1.67;;;16.50;71.10;;;;;;4154375;28;20105;-82
2022/08/24 04:43:21;;;;;;;7.90;1.60;;;16.50;71.10;;;;;;4176529;28;22097;-83
2022/08/24 04:45:22;;;;;;;8.60;1.70;;;16.50;71.10;;;;;;4167092;28;20040;-83
2022/08/24 04:47:23;;;;;;;4.10;1.60;;;16.60;71.20;;;;;;4168293;28;20022;-83
2022/08/24 04:49:33;;;;;;;7.88;1.30;;;16.60;71.10;;;;;;4160430;28;20029;-84
2022/08/24 04:51:35;;;;;;;5.75;2.05;;;16.60;71.10;;;;;;4149829;28;20049;-84
2022/08/24 04:53:39;;;;;;;6.95;2.05;;;16.60;71.00;;;;;;4153394;28;20085;-82
2022/08/24 04:55:43;;;;;;;7.18;1.35;;;16.60;70.80;;;;;;4159169;28;20038;-88
2022/08/24 04:57:44;;;;;;;5.75;1.75;;;16.60;70.80;;;;;;4152740;28;20026;-87
2022/08/24 04:59:46;;;;;;;5.35;1.70;;;16.70;70.90;;;;;;4168163;28;20112;-85
2022/08/24 05:01:47;;;;;;;4.45;1.52;;;16.60;70.70;;;;;;4167802;28;20020;-87
2022/08/24 05:03:51;;;;;;;4.93;1.63;;;16.60;70.80;;;;;;4153844;28;20084;-85
2022/08/24 05:05:52;;;;;;;13.65;1.92;;;16.60;71.00;;;;;;4167078;28;20057;-85
2022/08/24 05:07:53;;;;;;;7.40;2.63;;;16.70;71.00;;;;;;4168988;28;20101;-89
2022/08/24 05:09:54;;;;;;;4.18;1.50;;;16.70;71.10;;;;;;4154715;28;20025;-84
2022/08/24 05:11:56;;;;;;;3.08;1.80;;;16.70;71.20;;;;;;4168201;28;20360;-88
2022/08/24 05:14:26;;;;;;;4.35;1.50;;;16.70;71.30;;;;;;4166567;28;20049;-88
2022/08/24 05:16:31;;;;;;;6.40;1.55;;;16.70;71.70;;;;;;4160610;28;20021;-85
2022/08/24 05:18:32;;;;;;;8.20;1.65;;;16.80;71.60;;;;;;4162593;28;20038;-86
2022/08/24 05:20:45;;;;;;;4.72;1.65;;;16.80;71.70;;;;;;4167400;28;20040;-86
2022/08/24 05:22:58;;;;;;;10.85;1.60;;;16.90;71.90;;;;;;4168832;28;20106;-86
2022/08/24 05:24:59;;;;;;;9.02;2.00;;;16.90;72.10;;;;;;4166423;28;20029;-85
2022/08/24 05:27:03;;;;;;;7.65;1.55;;;16.90;72.20;;;;;;4170535;28;20595;-85
2022/08/24 05:29:05;;;;;;;7.88;1.70;;;17.00;72.50;;;;;;4170767;28;20018;-86
2022/08/24 05:31:12;;;;;;;6.78;1.65;;;17.00;72.50;;;;;;4171163;28;20029;-85
2022/08/24 05:33:13;;;;;;;10.68;1.83;;;17.10;72.60;;;;;;4169033;28;20036;-89
2022/08/24 05:35:14;;;;;;;6.95;1.67;;;17.10;72.80;;;;;;4150328;28;20474;-86
2022/08/24 05:37:14;;;;;;;4.70;1.70;;;17.20;72.90;;;;;;4145056;28;20053;-85
2022/08/24 05:39:15;;;;;;;4.60;2.15;;;17.30;73.00;;;;;;4161919;28;20017;-86
2022/08/24 05:41:17;;;;;;;5.45;1.60;;;17.40;73.00;;;;;;4162082;28;20021;-86
2022/08/24 05:43:24;;;;;;;6.75;1.63;;;17.50;73.00;;;;;;4148228;28;20459;-86
2022/08/24 05:45:28;;;;;;;5.07;1.38;;;17.50;72.90;;;;;;4179833;28;20028;-85
2022/08/24 05:47:28;;;;;;;;;;;17.60;72.70;;;;;;4164675;28;20098;-86
2022/08/24 05:49:29;;;;;;;8.07;1.70;;;17.70;73.30;;;;;;4166713;28;20645;-85
2022/08/24 05:51:34;;;;;;;7.38;1.42;;;17.80;72.60;;;;;;4170609;28;20041;-86
2022/08/24 05:53:35;;;;;;;3.97;1.50;;;17.90;72.60;;;;;;4157065;28;20531;-83
2022/08/24 05:55:37;;;;;;;14.10;1.67;;;17.90;72.40;;;;;;4153318;28;20068;-88
2022/08/24 05:57:38;;;;;;;11.90;1.80;;;18.00;72.30;;;;;;4168628;28;20029;-86
2022/08/24 05:59:39;;;;;;;4.93;1.40;;;18.10;72.20;;;;;;4152012;28;20115;-84
2022/08/24 06:01:41;;;;;;;4.57;1.42;;;18.10;72.00;;;;;;4163030;28;20423;-85
2022/08/24 06:03:42;;;;;;;5.65;1.50;;;18.20;71.90;;;;;;4165337;28;20029;-86
2022/08/24 06:05:43;;;;;;;4.85;1.33;;;18.20;71.70;;;;;;4150488;28;20027;-85
2022/08/24 06:07:48;;;;;;;6.00;1.63;;;18.20;71.60;;;;;;4154615;28;20022;-84
2022/08/24 06:09:49;;;;;;;12.57;1.90;;;18.30;71.50;;;;;;4170482;28;20033;-85
2022/08/24 06:11:50;;;;;;;4.05;1.50;;;18.40;71.40;;;;;;4169298;28;20102;-84
2022/08/24 06:13:53;;;;;;;3.10;1.40;;;18.40;71.30;;;;;;4172659;28;20025;-85
2022/08/24 06:16:08;;;;;;;5.38;1.40;;;18.40;71.10;;;;;;4169216;28;20032;-83
2022/08/24 06:18:09;;;;;;;3.78;1.40;;;18.50;71.20;;;;;;4173221;28;20163;-84
2022/08/24 06:20:10;;;;;;;6.30;1.77;;;18.50;70.90;;;;;;4169127;28;20033;-84
2022/08/24 06:22:11;;;;;;;5.70;1.90;;;18.60;70.90;;;;;;4168008;28;21343;-82
2022/08/24 06:24:14;;;;;;;6.47;1.48;;;18.60;71.60;;;;;;4155026;28;20037;-86
2022/08/24 06:28:35;;;;;;;6.63;1.70;;;18.70;70.70;;;;;;4170967;28;20049;-86
2022/08/24 06:30:36;;;;;;;5.80;1.60;;;18.70;70.80;;;;;;4160281;28;20026;-87
2022/08/24 06:32:38;;;;;;;3.58;1.33;;;18.80;70.80;;;;;;4165429;28;20037;-86
2022/08/24 06:34:39;;;;;;;1.95;1.15;;;18.90;70.90;;;;;;4169855;28;20029;-84
2022/08/24 06:36:40;;;;;;;4.07;1.23;;;18.90;70.70;;;;;;4181678;28;20035;-87
2022/08/24 06:38:42;;;;;;;4.38;1.42;;;19.00;70.70;;;;;;4171976;28;20033;-85
2022/08/24 06:40:43;;;;;;;4.57;1.40;;;19.20;70.90;;;;;;4169247;28;20024;-85
2022/08/24 06:42:44;;;;;;;7.75;1.10;;;19.10;70.80;;;;;;4152245;28;20436;-85
2022/08/24 06:44:45;;;;;;;6.95;1.80;;;19.30;70.60;;;;;;4182642;28;20025;-85
2022/08/24 06:46:46;;;;;;;2.90;1.35;;;19.40;70.20;;;;;;4181673;28;20049;-86
2022/08/24 06:48:48;;;;;;;5.68;1.20;;;19.40;69.70;;;;;;4165765;28;20491;-82
2022/08/24 06:50:50;;;;;;;2.78;1.00;;;19.60;69.20;;;;;;4172689;28;20033;-86
2022/08/24 06:52:54;;;;;;;3.60;1.25;;;19.60;68.70;;;;;;4180192;28;20039;-86
2022/08/24 06:54:55;;;;;;;6.35;1.17;;;19.70;68.00;;;;;;4169551;28;20825;-85
2022/08/24 06:57:00;;;;;;;3.42;1.00;;;19.90;67.60;;;;;;4165803;28;20029;-84
2022/08/24 06:59:04;;;;;;;3.60;1.05;;;20.00;67.20;;;;;;4147343;28;20033;-85
2022/08/24 07:01:15;;;;;;;6.28;1.00;;;20.10;67.00;;;;;;4170622;28;20037;-84
2022/08/24 07:03:16;;;;;;;4.28;1.13;;;20.20;66.60;;;;;;4156861;28;20026;-86
2022/08/24 07:05:17;;;;;;;6.75;1.20;;;20.20;66.10;;;;;;4165853;28;20458;-84
2022/08/24 07:07:18;;;;;;;2.63;1.00;;;20.40;65.50;;;;;;4152449;28;20025;-84
2022/08/24 07:09:31;;;;;;;4.13;1.27;;;20.50;65.10;;;;;;4165984;28;20102;-84
2022/08/24 07:11:36;;;;;;;2.97;1.17;;;20.60;64.70;;;;;;4169235;28;20057;-85
2022/08/24 07:13:40;;;;;;;2.73;0.80;;;20.70;63.60;;;;;;4174087;28;20025;-84
2022/08/24 07:15:42;;;;;;;5.30;1.30;;;20.80;63.20;;;;;;4168647;28;20036;-85
2022/08/24 07:17:43;;;;;;;4.82;1.02;;;20.90;62.80;;;;;;4168732;28;20036;-83
2022/08/24 07:19:48;;;;;;;5.07;1.00;;;21.00;61.90;;;;;;4163480;28;20032;-84
2022/08/24 07:21:49;;;;;;;7.72;1.13;;;21.00;61.30;;;;;;4167473;28;20160;-85
2022/08/24 07:23:55;;;;;;;3.22;1.10;;;21.10;61.40;;;;;;4151754;28;20435;-86
2022/08/24 07:25:56;;;;;;;3.42;1.05;;;21.30;61.70;;;;;;4167723;28;20030;-84
2022/08/24 07:27:59;;;;;;;4.65;1.10;;;21.30;60.30;;;;;;4183001;28;20035;-85
2022/08/24 07:30:00;;;;;;;;;;;21.40;59.70;;;;;;4166963;28;20037;-84
2022/08/24 07:32:01;;;;;;;4.03;1.23;;;21.50;59.70;;;;;;4162937;28;20292;-84
2022/08/24 07:34:11;;;;;;;5.73;1.13;;;21.60;59.70;;;;;;4169296;28;20052;-87
2022/08/24 07:36:13;;;;;;;5.28;1.08;;;21.70;59.40;;;;;;4150832;28;20285;-84
2022/08/24 07:38:20;;;;;;;2.95;1.00;;;21.70;58.40;;;;;;4178342;28;20091;-86
2022/08/24 07:40:24;;;;;;;2.35;0.75;;;21.80;58.60;;;;;;4165741;28;20021;-83
2022/08/24 07:42:25;;;;;;;4.18;0.98;;;21.90;58.40;;;;;;4152404;28;20463;-86
2022/08/24 07:44:25;;;;;;;3.65;1.10;;;21.90;58.20;;;;;;4171052;28;20040;-85
2022/08/24 07:46:36;;;;;;;6.60;1.23;;;22.00;58.10;;;;;;4149514;28;20510;-85
2022/08/24 07:48:40;;;;;;;4.05;1.23;;;22.10;57.50;;;;;;4163445;28;20029;-84
2022/08/24 07:50:41;;;;;;;7.28;0.88;;;22.10;56.90;;;;;;4162705;28;20155;-82
2022/08/24 07:52:43;;;;;;;4.00;1.08;;;22.20;56.90;;;;;;4168492;28;20582;-84
2022/08/24 07:54:44;;;;;;;5.22;0.80;;;22.20;56.80;;;;;;4166584;28;20025;-84
2022/08/24 07:56:46;;;;;;;2.28;1.17;;;22.30;56.60;;;;;;4164666;28;20038;-84
2022/08/24 07:58:47;;;;;;;2.42;0.75;;;22.30;56.70;;;;;;4163522;28;20042;-87
2022/08/24 08:00:48;;;;;;;3.45;1.02;;;22.40;57.10;;;;;;4170335;28;20072;-86
2022/08/24 08:02:49;;;;;;;3.65;1.00;;;22.40;56.50;;;;;;4146373;28;20041;-85
2022/08/24 08:04:50;;;;;;;1.98;0.93;;;22.50;55.90;;;;;;4158632;28;20032;-86
2022/08/24 08:06:52;;;;;;;5.72;1.05;;;22.60;55.80;;;;;;4163656;28;20161;-85
2022/08/24 08:08:53;;;;;;;3.97;1.10;;;22.60;55.40;;;;;;4156172;28;20037;-84
2022/08/24 08:10:57;;;;;;;4.97;0.95;;;22.70;55.40;;;;;;4146211;28;20071;-88
2022/08/24 08:13:07;;;;;;;2.95;0.90;;;22.70;55.20;;;;;;4159128;28;20124;-87
2022/08/24 08:15:09;;;;;;;4.28;1.15;;;22.70;55.00;;;;;;4160731;28;20033;-85
2022/08/24 08:17:12;;;;;;;2.75;0.93;;;22.80;54.80;;;;;;4159541;28;20029;-85
2022/08/24 08:19:12;;;;;;;4.83;1.10;;;22.80;54.70;;;;;;4161466;28;20041;-86
2022/08/24 08:25:56;;;;;;;6.85;0.93;;;23.00;53.50;;;;;;4162858;28;20076;-85
2022/08/24 08:27:57;;;;;;;3.60;1.13;;;23.00;52.20;;;;;;4160684;28;20530;-83
2022/08/24 08:29:58;;;;;;;6.43;1.42;;;23.10;51.90;;;;;;4158184;28;20038;-85
2022/08/24 08:31:59;;;;;;;8.43;1.20;;;23.10;52.10;;;;;;4167888;28;20129;-85
2022/08/24 08:34:00;;;;;;;3.58;0.80;;;23.20;52.00;;;;;;4172334;28;20422;-84
2022/08/24 08:36:13;;;;;;;5.30;0.95;;;23.20;51.90;;;;;;4158396;28;20029;-86
2022/08/24 08:38:14;;;;;;;;;;;23.30;51.60;;;;;;4162298;28;20025;-85
2022/08/24 08:40:43;;;;;;;3.55;1.17;;;23.30;52.40;;;;;;4158384;28;20355;-86
2022/08/24 08:43:05;;;;;;;2.50;0.95;;;23.30;50.90;;;;;;4141655;28;20031;-86
2022/08/24 08:45:30;;;;;;;2.42;0.75;;;23.40;50.80;;;;;;4161499;28;20045;-87
2022/08/24 08:47:49;;;;;;;3.53;0.70;;;23.50;50.00;;;;;;4154782;28;20032;-85
2022/08/24 08:50:04;;;;;;;5.50;1.15;;;23.50;50.40;;;;;;4160827;28;20109;-85
2022/08/24 08:52:29;;;;;;;3.10;0.90;;;23.50;50.30;;;;;;4159516;28;20072;-84
2022/08/24 08:54:40;;;;;;;6.85;1.67;;;23.60;50.20;;;;;;4156164;28;20084;-85
2022/08/24 08:56:53;;;;;;;2.65;0.93;;;23.60;50.90;;;;;;4156004;28;20036;-88
2022/08/24 08:59:24;;;;;;;1.77;0.63;;;23.70;51.00;;;;;;4154008;28;20084;-84
2022/08/24 09:01:50;;;;;;;4.32;1.00;;;23.70;51.00;;;;;;4155123;28;20029;-85
2022/08/24 09:04:13;;;;;;;7.20;0.90;;;23.80;50.90;;;;;;4142360;28;20642;-85
2022/08/24 09:06:29;;;;;;;3.13;1.00;;;23.80;51.50;;;;;;4155697;28;20033;-83
2022/08/24 09:08:44;;;;;;;4.47;1.17;;;23.70;50.60;;;;;;4156770;28;20025;-86
2022/08/24 09:11:15;;;;;;;5.15;0.90;;;23.90;51.60;;;;;;4154743;28;20021;-84
2022/08/24 09:13:40;;;;;;;6.10;0.93;;;23.90;50.90;;;;;;4159669;28;20037;-85
2022/08/24 09:16:08;;;;;;;1.50;0.77;;;23.90;50.60;;;;;;4158911;28;20041;-85
2022/08/24 09:18:15;;;;;;;3.30;0.98;;;23.90;50.60;;;;;;4157898;28;20087;-85
2022/08/24 09:20:46;;;;;;;4.05;0.80;;;24.00;50.40;;;;;;4159700;28;20033;-86
2022/08/24 09:22:53;;;;;;;3.72;0.95;;;24.00;50.90;;;;;;4156537;28;20052;-84
2022/08/24 09:24:54;;;;;;;3.00;1.20;;;24.10;51.50;;;;;;4137054;28;20035;-86
2022/08/24 09:27:32;;;;;;;6.97;1.00;;;24.10;51.50;;;;;;4174338;28;20057;-86
2022/08/24 09:29:57;;;;;;;3.97;1.27;;;24.20;51.50;;;;;;4154715;28;20026;-86
2022/08/24 09:32:34;;;;;;;4.70;1.33;;;24.10;51.50;;;;;;4139472;28;20029;-85
2022/08/24 09:34:58;;;;;;;8.85;1.25;;;24.20;51.80;;;;;;4159368;28;20036;-85
2022/08/24 09:37:46;;;;;;;9.40;1.17;;;24.20;51.20;;;;;;4157219;28;20056;-86
2022/08/24 09:40:25;;;;;;;3.50;1.00;;;24.20;50.70;;;;;;4141788;28;20032;-87
2022/08/24 09:42:40;;;;;;;9.75;1.67;;;24.20;50.90;;;;;;4127778;28;20029;-84
2022/08/24 09:45:11;;;;;;;2.95;0.90;;;24.30;51.50;;;;;;4158830;28;20022;-85
2022/08/24 09:47:36;;;;;;;4.03;1.10;;;24.30;51.90;;;;;;4158285;28;20074;-84
2022/08/24 09:50:02;;;;;;;6.60;1.30;;;24.40;51.70;;;;;;4143620;28;20068;-87
2022/08/24 09:52:37;;;;;;;4.07;1.02;;;24.40;51.80;;;;;;4158884;28;20029;-86
2022/08/24 09:55:07;;;;;;;4.32;1.23;;;24.40;51.70;;;;;;4162257;28;20536;-84
2022/08/24 09:57:40;;;;;;;7.50;1.15;;;24.50;51.60;;;;;;4152006;28;20048;-85
2022/08/24 10:00:22;;;;;;;4.57;1.10;;;24.50;51.40;;;;;;4152665;28;20026;-83
2022/08/24 10:02:28;;;;;;;4.43;1.08;;;24.50;51.20;;;;;;4106735;28;20086;-85
2022/08/24 10:04:41;;;;;;;3.45;0.90;;;24.50;51.70;;;;;;4121166;28;20033;-80
2022/08/24 10:07:01;;;;;;;2.38;1.25;;;24.60;51.80;;;;;;4170543;28;20029;-84
2022/08/24 10:09:32;;;;;;;4.50;1.55;;;24.60;51.70;;;;;;4169574;28;20124;-85
2022/08/24 10:11:56;;;;;;;3.65;1.08;;;24.60;51.80;;;;;;4155846;28;20167;-83
2022/08/24 10:14:17;;;;;;;2.83;1.20;;;24.70;51.20;;;;;;4156456;28;20026;-84
2022/08/24 10:16:42;;;;;;;3.88;1.10;;;24.70;51.50;;;;;;4157303;28;20033;-85
2022/08/24 10:18:49;;;;;;;2.47;0.90;;;24.70;51.50;;;;;;4160538;28;20028;-87
2022/08/24 10:21:08;;;;;;;3.65;1.00;;;24.70;51.60;;;;;;4155834;28;20096;-84
2022/08/24 10:23:46;;;;;;;5.25;1.10;;;24.80;51.80;;;;;;4171115;28;20084;-84
2022/08/24 10:25:52;;;;;;;3.58;1.00;;;24.80;51.60;;;;;;4157364;28;20024;-85
2022/08/24 10:28:14;;;;;;;3.03;0.93;;;24.70;51.50;;;;;;4142699;28;20034;-83
2022/08/24 10:30:46;;;;;;;4.63;1.10;;;24.80;51.40;;;;;;4165121;28;20035;-86
2022/08/24 10:33:12;;;;;;;4.68;1.55;;;24.90;50.90;;;;;;4134720;28;20053;-85
2022/08/24 10:35:26;;;;;;;11.80;1.58;;;25.00;51.30;;;;;;4156010;28;20108;-84
2022/08/24 10:37:42;;;;;;;4.10;1.10;;;24.90;50.90;;;;;;4150287;28;20040;-84
2022/08/24 10:40:18;;;;;;;3.28;1.10;;;25.00;51.50;;;;;;4137418;28;20054;-87
2022/08/24 10:45:30;;;;;;;5.75;1.30;;;25.00;51.00;;;;;;4117737;28;19937;-86
2022/08/24 10:48:12;;;;;;;3.22;1.10;;;25.10;51.10;;;;;;4141621;28;20044;-87
2022/08/24 10:50:47;;;;;;;3.75;1.15;;;25.10;50.60;;;;;;4157478;28;20064;-84
2022/08/24 10:53:18;;;;;;;4.13;0.95;;;25.10;50.20;;;;;;4158047;28;20590;-85
2022/08/24 10:55:23;;;;;;;7.75;1.30;;;25.20;50.80;;;;;;4157251;28;20025;-84
2022/08/24 10:57:38;;;;;;;4.80;1.10;;;25.20;50.90;;;;;;4159428;28;20099;-84
2022/08/24 10:59:54;;;;;;;4.78;1.10;;;25.20;50.20;;;;;;4139197;28;20030;-83
2022/08/24 11:02:04;;;;;;;7.25;2.15;;;25.20;50.50;;;;;;4171492;28;20040;-84
2022/08/24 11:04:11;;;;;;;4.05;1.08;;;25.30;50.80;;;;;;4159255;28;20108;-86
2022/08/24 11:06:17;;;;;;;3.08;0.90;;;25.30;50.60;;;;;;4157168;28;20091;-84
2022/08/24 11:08:24;;;;;;;6.30;1.65;;;25.40;50.00;;;;;;4161962;28;20083;-88
2022/08/24 11:10:29;;;;;;;3.50;1.10;;;25.40;49.70;;;;;;4144413;28;20038;-86
2022/08/24 11:12:41;;;;;;;6.30;1.08;;;25.40;49.60;;;;;;4159672;28;20029;-85